Time;durP1;ratioP1;P1;durP2;ratioP2;P2;SDS_P1;SDS_P2;PMS_P1;PMS_P2;Temp;Humidity;BMP_temperature;BMP_pressure;BME280_temperature;BME280_humidity;BME280_pressure;Samples;Min_cycle;Max_cycle;Signal;HPM_P1;HPM_P2
2022/06/26 00:02:20;;;;;;;;;1.50;1.00;;;;;19.07;58.55;100926.25;5088418;27;45217;-77
2022/06/26 00:04:45;;;;;;;;;2.75;1.50;;;;;19.06;58.42;100934.44;5102038;27;45457;-77
2022/06/26 00:07:11;;;;;;;;;1.00;1.00;;;;;19.08;58.53;100943.38;5100984;27;45971;-78
2022/06/26 00:09:36;;;;;;;;;1.00;1.00;;;;;18.80;58.47;100896.41;5101629;27;45491;-78
2022/06/26 00:12:01;;;;;;;;;1.00;1.00;;;;;19.01;58.88;100923.97;5102641;27;45244;-78
2022/06/26 00:14:27;;;;;;;;;2.00;2.00;;;;;19.06;58.45;100939.88;5101778;27;45260;-78
2022/06/26 00:16:53;;;;;;;;;3.25;1.25;;;;;19.03;58.32;100931.97;5101974;27;47449;-77
2022/06/26 00:19:18;;;;;;;;;1.00;1.00;;;;;19.02;58.78;100935.63;5101930;27;45223;-78
2022/06/26 00:21:44;;;;;;;;;1.50;1.00;;;;;19.04;58.22;100939.09;5101847;27;45404;-78
2022/06/26 00:24:09;;;;;;;;;2.25;2.00;;;;;19.01;58.78;100936.59;5102064;27;45645;-77
2022/06/26 00:26:34;;;;;;;;;1.00;1.00;;;;;18.95;58.86;100924.34;5101941;27;45326;-77
2022/06/26 00:29:00;;;;;;;;;1.00;1.00;;;;;18.98;58.80;100934.97;5102057;27;45454;-77
2022/06/26 00:31:25;;;;;;;;;2.50;2.25;;;;;18.99;58.64;100930.41;5101964;27;45359;-77
2022/06/26 00:33:50;;;;;;;;;3.00;3.00;;;;;18.90;58.70;100912.09;5102008;27;45290;-78
2022/06/26 00:36:16;;;;;;;;;2.00;2.00;;;;;18.98;58.50;100923.28;5101783;27;45366;-78
2022/06/26 00:38:41;;;;;;;;;1.50;1.50;;;;;18.94;58.90;100925.28;5101672;27;45316;-78
2022/06/26 00:41:06;;;;;;;;;1.00;1.00;;;;;18.94;58.85;100936.13;5101837;27;45300;-77
2022/06/26 00:43:32;;;;;;;;;1.00;1.00;;;;;18.90;59.20;100929.19;5099856;27;45503;-77
2022/06/26 00:45:57;;;;;;;;;1.00;1.00;;;;;18.83;59.28;100911.63;5101596;27;45427;-77
2022/06/26 00:48:23;;;;;;;;;1.00;1.00;;;;;18.84;59.27;100911.53;5101529;27;45328;-77
2022/06/26 00:50:50;;;;;;;;;2.00;2.00;;;;;18.85;58.67;100918.66;5101492;27;45278;-78
2022/06/26 00:53:15;;;;;;;;;1.25;1.00;;;;;18.82;58.81;100926.06;5101210;27;45776;-77
2022/06/26 00:55:40;;;;;;;;;1.00;1.00;;;;;18.85;58.98;100934.88;5100186;27;45432;-77
2022/06/26 00:58:06;;;;;;;;;1.00;0.50;;;;;18.79;58.87;100931.66;5101473;27;45277;-78
2022/06/26 01:00:32;;;;;;;;;2.00;2.00;;;;;18.79;59.12;100934.38;5101546;27;45219;-78
2022/06/26 01:02:57;;;;;;;;;1.25;1.25;;;;;18.73;59.02;100935.66;5101178;27;45297;-78
2022/06/26 01:05:23;;;;;;;;;2.50;1.50;;;;;18.77;58.94;100947.13;5101091;27;45360;-78
2022/06/26 01:07:49;;;;;;;;;0.75;0.75;;;;;18.70;59.23;100928.56;5101168;27;45190;-77
2022/06/26 01:10:15;;;;;;;;;1.00;1.00;;;;;18.75;59.38;100933.69;5101654;27;45586;-78
2022/06/26 01:12:41;;;;;;;;;1.75;1.75;;;;;18.75;59.32;100933.69;5099882;27;45721;-77
2022/06/26 01:15:08;;;;;;;;;4.50;2.50;;;;;18.75;59.27;100935.53;5100893;27;45529;-77
2022/06/26 01:17:34;;;;;;;;;1.00;1.00;;;;;18.73;59.47;100949.16;5100977;27;45339;-77
2022/06/26 01:20:00;;;;;;;;;1.00;1.00;;;;;18.62;59.38;100939.00;5100533;27;45369;-77
2022/06/26 01:22:27;;;;;;;;;2.75;2.75;;;;;18.67;59.22;100950.41;5100513;27;45152;-77
2022/06/26 01:24:52;;;;;;;;;2.00;1.00;;;;;18.62;59.50;100948.97;5101187;27;46176;-78
2022/06/26 01:27:18;;;;;;;;;0.50;0.50;;;;;18.58;59.19;100950.13;5100960;27;45292;-77
2022/06/26 01:29:43;;;;;;;;;2.00;2.00;;;;;18.58;59.38;100944.72;5101041;27;45523;-77
2022/06/26 01:32:08;;;;;;;;;2.50;2.00;;;;;18.57;59.08;100951.09;5100884;27;46990;-77
2022/06/26 01:34:34;;;;;;;;;1.00;1.00;;;;;18.52;59.12;100943.25;5100717;27;45366;-77
2022/06/26 01:37:00;;;;;;;;;2.50;1.50;;;;;18.57;59.11;100959.19;5100867;27;45288;-77
2022/06/26 01:39:26;;;;;;;;;2.50;1.75;;;;;18.51;59.25;100958.63;5100864;27;45422;-78
2022/06/26 01:41:51;;;;;;;;;2.00;1.25;;;;;18.47;59.10;100962.47;5099352;27;45411;-77
2022/06/26 01:44:16;;;;;;;;;1.75;1.75;;;;;18.43;59.40;100963.63;5100572;27;45320;-77
2022/06/26 01:46:42;;;;;;;;;2.75;2.75;;;;;18.38;59.30;100960.34;5100584;27;45465;-77
2022/06/26 01:49:07;;;;;;;;;1.75;1.75;;;;;18.25;59.46;100946.72;5100568;27;45420;-77
2022/06/26 01:51:32;;;;;;;;;1.75;1.75;;;;;18.39;59.37;100972.88;5100639;27;45427;-77
2022/06/26 01:53:57;;;;;;;;;2.50;2.50;;;;;18.38;59.52;100965.75;5099370;27;48205;-77
2022/06/26 01:56:23;;;;;;;;;1.50;1.50;;;;;18.40;59.05;100962.97;5100539;27;45514;-77
2022/06/26 01:58:48;;;;;;;;;1.00;1.00;;;;;18.40;59.56;100966.50;5100955;27;45349;-77
2022/06/26 02:01:14;;;;;;;;;1.50;1.50;;;;;18.40;59.63;100969.22;5100282;27;45461;-77
2022/06/26 02:03:39;;;;;;;;;2.25;1.25;;;;;18.41;59.10;100970.09;5100392;27;47070;-78
2022/06/26 02:06:04;;;;;;;;;1.75;1.75;;;;;18.32;59.44;100958.00;5100265;27;45348;-77
2022/06/26 02:08:30;;;;;;;;;1.00;1.00;;;;;18.34;59.40;100950.66;5100844;27;45355;-77
2022/06/26 02:13:40;;;;;;;;;1.50;1.50;;;;;18.40;59.64;100962.97;5100043;27;45769;-77
2022/06/26 02:16:17;;;;;;;;;2.00;2.00;;;;;18.37;59.52;100961.28;5099636;27;45425;-76
2022/06/26 02:18:46;;;;;;;;;2.00;1.00;;;;;18.36;59.45;100959.56;5116164;27;45285;-77
2022/06/26 02:21:13;;;;;;;;;2.00;2.00;;;;;18.31;59.22;100965.25;5100096;27;45594;-76
2022/06/26 02:23:40;;;;;;;;;1.75;0.50;;;;;18.35;59.61;100970.47;5100243;27;46331;-77
2022/06/26 02:26:07;;;;;;;;;2.00;2.00;;;;;18.34;59.64;100969.59;5100263;27;45450;-77
2022/06/26 02:28:34;;;;;;;;;2.00;2.00;;;;;18.34;59.67;100975.00;5100358;27;45233;-77
2022/06/26 02:30:59;;;;;;;;;3.00;3.00;;;;;18.21;59.40;100950.56;5100071;27;45246;-76
2022/06/26 02:33:24;;;;;;;;;3.00;2.00;;;;;18.37;59.53;100966.69;5103076;27;45270;-77
2022/06/26 02:35:50;;;;;;;;;2.50;2.50;;;;;18.39;59.33;100962.06;5103657;27;45351;-76
2022/06/26 02:38:16;;;;;;;;;3.50;2.75;;;;;18.37;59.70;100961.28;5103260;27;45326;-77
2022/06/26 02:40:43;;;;;;;;;2.75;2.00;;;;;18.31;59.52;100959.00;5103389;27;45498;-76
2022/06/26 02:43:09;;;;;;;;;2.25;2.25;;;;;18.35;59.21;100962.38;5102911;27;47092;-77
2022/06/26 02:45:35;;;;;;;;;2.00;2.00;;;;;18.34;59.64;100958.78;5103457;27;45314;-76
2022/06/26 02:48:00;;;;;;;;;1.75;1.50;;;;;18.35;59.19;100965.94;5103620;27;45172;-77
2022/06/26 02:50:25;;;;;;;;;1.00;1.00;;;;;18.38;59.45;100962.19;5103355;27;45279;-77
2022/06/26 02:52:52;;;;;;;;;4.75;1.75;;;;;18.35;59.60;100951.56;5103370;27;46191;-76
2022/06/26 02:55:18;;;;;;;;;1.75;1.75;;;;;18.37;59.45;100960.44;5103503;27;45399;-77
2022/06/26 02:57:44;;;;;;;;;3.00;2.00;;;;;18.37;59.54;100958.59;5103506;27;45396;-77
2022/06/26 03:00:12;;;;;;;;;1.00;1.00;;;;;18.35;59.31;100959.66;5103235;27;45335;-77
2022/06/26 03:02:37;;;;;;;;;2.25;2.25;;;;;18.41;59.34;100968.28;5089318;27;45364;-77
2022/06/26 03:05:03;;;;;;;;;1.75;1.75;;;;;18.30;59.06;100960.81;5103073;27;45576;-77
2022/06/26 03:07:28;;;;;;;;;1.50;1.50;;;;;18.32;58.71;100966.97;5102129;27;45471;-77
2022/06/26 03:09:53;;;;;;;;;1.50;1.50;;;;;18.36;58.77;100973.09;5103341;27;45296;-77
2022/06/26 03:12:19;;;;;;;;;2.00;2.00;;;;;18.35;59.04;100963.22;5102958;27;45523;-77
2022/06/26 03:14:44;;;;;;;;;1.25;1.25;;;;;18.39;59.17;100972.00;5102778;27;45368;-77
2022/06/26 03:17:09;;;;;;;;;3.25;2.00;;;;;18.42;59.06;100971.81;5103247;27;45374;-77
2022/06/26 03:19:35;;;;;;;;;4.50;2.50;;;;;18.39;58.92;100964.75;5102934;27;45436;-77
2022/06/26 03:22:00;;;;;;;;;4.50;2.50;;;;;18.44;59.04;100978.00;5102935;27;45484;-76
2022/06/26 03:24:25;;;;;;;;;4.50;3.25;;;;;18.39;59.25;100972.88;5103132;27;45195;-77
2022/06/26 03:26:51;;;;;;;;;2.75;2.75;;;;;18.40;58.48;100977.31;5103081;27;45251;-77
2022/06/26 03:29:16;;;;;;;;;2.00;1.75;;;;;18.44;59.08;100987.00;5101736;27;45531;-76
2022/06/26 03:31:41;;;;;;;;;3.00;3.00;;;;;18.46;58.83;100981.47;5102606;27;45430;-77
2022/06/26 03:34:07;;;;;;;;;2.75;1.75;;;;;18.48;58.45;100982.28;5102771;27;45401;-77
2022/06/26 03:36:33;;;;;;;;;1.75;1.75;;;;;18.49;58.57;100984.00;5102939;27;45144;-76
2022/06/26 03:38:59;;;;;;;;;2.75;2.00;;;;;18.38;58.93;100964.88;5101525;27;45490;-76
2022/06/26 03:41:25;;;;;;;;;2.00;1.25;;;;;18.44;58.60;100972.59;5102248;27;46420;-77
2022/06/26 03:43:50;;;;;;;;;3.00;2.00;;;;;18.44;59.05;100975.31;5100941;27;45438;-77
2022/06/26 03:46:16;;;;;;;;;1.75;1.75;;;;;18.43;58.78;100974.44;5102785;27;45445;-77
2022/06/26 03:48:42;;;;;;;;;2.00;2.00;;;;;18.48;58.38;100985.84;5102684;27;45301;-77
2022/06/26 03:51:08;;;;;;;;;1.75;1.75;;;;;18.48;58.21;100991.25;5102144;27;45715;-77
2022/06/26 03:53:34;;;;;;;;;3.00;1.75;;;;;18.36;58.69;100983.91;5102757;27;45477;-76
2022/06/26 03:55:59;;;;;;;;;3.00;2.00;;;;;18.37;58.43;100982.06;5102536;27;45305;-77
2022/06/26 03:58:25;;;;;;;;;3.25;3.00;;;;;18.36;58.41;100994.72;5102528;27;45384;-76
2022/06/26 04:00:51;;;;;;;;;2.00;2.00;;;;;18.40;58.12;101003.50;5102120;27;45417;-77
2022/06/26 04:03:17;;;;;;;;;4.00;1.75;;;;;18.39;58.47;101001.75;5102367;27;45215;-76
2022/06/26 04:05:43;;;;;;;;;3.00;1.50;;;;;18.37;58.24;101007.25;5101019;27;45377;-77
2022/06/26 04:08:09;;;;;;;;;1.75;1.75;;;;;18.33;58.05;101005.69;5102310;27;45511;-77
2022/06/26 04:10:35;;;;;;;;;3.00;2.00;;;;;18.31;58.04;101013.91;5102215;27;46177;-77
2022/06/26 04:13:04;;;;;;;;;4.00;2.00;;;;;18.33;58.36;101019.22;5102051;27;45492;-76
2022/06/26 04:15:31;;;;;;;;;3.75;1.75;;;;;18.28;58.09;101013.22;5102207;27;45515;-77
2022/06/26 04:17:57;;;;;;;;;3.00;1.50;;;;;18.33;57.98;101024.63;5102248;27;45227;-76
2022/06/26 04:20:23;;;;;;;;;1.00;1.00;;;;;18.33;57.95;101021.91;5101681;27;45360;-77
2022/06/26 04:23:16;;;;;;;;;2.00;1.50;;;;;18.30;58.02;101025.66;5100866;27;45337;-76
2022/06/26 04:25:42;;;;;;;;;2.50;2.50;;;;;18.28;57.72;101030.28;5102069;27;45516;-77
2022/06/26 04:28:08;;;;;;;;;3.50;2.00;;;;;18.19;58.05;101025.44;5102222;27;45197;-77
2022/06/26 04:30:33;;;;;;;;;3.75;2.50;;;;;18.25;58.45;101029.59;5101483;27;46648;-76
2022/06/26 04:32:58;;;;;;;;;1.00;1.00;;;;;18.30;57.60;101038.31;5102059;27;45546;-76
2022/06/26 04:35:24;;;;;;;;;3.50;1.75;;;;;18.30;57.66;101032.91;5101740;27;45393;-77
2022/06/26 04:37:50;;;;;;;;;2.25;1.75;;;;;18.24;57.73;101027.84;5100573;27;45381;-77
2022/06/26 04:40:15;;;;;;;;;2.00;2.00;;;;;18.17;58.02;101013.84;5101395;27;46201;-77
2022/06/26 04:42:42;;;;;;;;;1.75;1.00;;;;;18.24;57.81;101022.44;5101406;27;45464;-77
2022/06/26 04:45:09;;;;;;;;;1.00;1.00;;;;;18.31;57.76;101042.75;5100087;27;45506;-76
2022/06/26 04:47:34;;;;;;;;;2.75;1.50;;;;;18.34;57.58;101056.06;5101707;27;45301;-76
2022/06/26 04:50:00;;;;;;;;;1.75;1.25;;;;;18.35;57.62;101048.84;5101206;27;46563;-76
2022/06/26 04:52:25;;;;;;;;;1.75;1.75;;;;;18.28;56.99;101032.13;5100551;27;45269;-76
2022/06/26 04:54:51;;;;;;;;;4.25;2.00;;;;;18.34;57.42;101050.66;5096816;27;45420;-76
2022/06/26 04:57:17;;;;;;;;;3.00;2.00;;;;;18.33;57.83;101055.19;5092672;27;45256;-76
2022/06/26 04:59:43;;;;;;;;;2.00;2.00;;;;;18.38;57.71;101060.34;5101019;27;45416;-77
2022/06/26 05:02:10;;;;;;;;;1.75;1.75;;;;;18.31;57.55;101058.97;5088925;27;45423;-77
2022/06/26 05:04:35;;;;;;;;;0.25;0.25;;;;;18.36;58.02;101067.69;5100042;27;45450;-76
2022/06/26 05:07:01;;;;;;;;;1.00;1.00;;;;;18.29;57.60;101045.56;5101409;27;45445;-77
2022/06/26 05:09:26;;;;;;;;;2.25;2.25;;;;;18.35;57.29;101054.25;5080524;27;48321;-77
2022/06/26 05:11:52;;;;;;;;;2.25;1.25;;;;;18.34;57.79;101056.06;5093039;27;45404;-77
2022/06/26 05:14:18;;;;;;;;;4.75;2.50;;;;;18.35;57.54;101063.22;5100942;27;45465;-76
2022/06/26 05:16:43;;;;;;;;;3.50;2.75;;;;;18.31;57.44;101062.53;5101165;27;45297;-77
2022/06/26 05:19:09;;;;;;;;;2.00;2.00;;;;;18.38;57.05;101070.28;5100818;27;45904;-77
2022/06/26 05:21:35;;;;;;;;;1.25;1.25;;;;;18.39;57.37;101078.28;5101165;27;45405;-77
2022/06/26 05:24:00;;;;;;;;;5.00;2.75;;;;;18.35;57.19;101067.78;5101077;27;45422;-77
2022/06/26 05:26:26;;;;;;;;;1.75;1.75;;;;;18.37;56.85;101069.41;5101231;27;45262;-76
2022/06/26 05:28:51;;;;;;;;;1.00;1.00;;;;;18.42;57.59;101061.88;5100840;27;46431;-77
2022/06/26 05:31:17;;;;;;;;;1.50;1.50;;;;;18.39;56.61;101069.31;5100920;27;45259;-77
2022/06/26 05:33:42;;;;;;;;;1.50;1.50;;;;;18.45;57.07;101071.66;5101086;27;45326;-77
2022/06/26 05:36:08;;;;;;;;;1.75;1.00;;;;;18.39;56.78;101064.75;5100899;27;45429;-77
2022/06/26 05:38:34;;;;;;;;;2.00;2.00;;;;;18.42;56.25;101079.94;5100669;27;46215;-76
2022/06/26 05:41:00;;;;;;;;;3.00;1.00;;;;;18.47;56.83;101085.94;5100633;27;46106;-76
2022/06/26 05:43:25;;;;;;;;;2.25;1.50;;;;;18.45;56.93;101077.91;5100602;27;45231;-77
2022/06/26 05:45:51;;;;;;;;;3.25;2.00;;;;;18.48;56.76;101068.78;5100906;27;45383;-76
2022/06/26 05:48:16;;;;;;;;;2.00;2.00;;;;;18.45;56.57;101068.94;5100580;27;46084;-77
2022/06/26 05:50:42;;;;;;;;;1.75;1.25;;;;;18.54;56.02;101076.47;5100532;27;45327;-76
2022/06/26 05:53:07;;;;;;;;;2.50;1.00;;;;;18.47;55.84;101059.75;5100767;27;45459;-76
2022/06/26 05:55:33;;;;;;;;;2.00;2.00;;;;;18.60;55.97;101080.66;5100834;27;45927;-76
2022/06/26 05:57:59;;;;;;;;;1.00;1.00;;;;;18.60;56.13;101075.25;5100515;27;45909;-76
2022/06/26 06:00:25;;;;;;;;;6.00;2.00;;;;;18.48;56.22;101061.53;5100431;27;45669;-77
2022/06/26 06:02:50;;;;;;;;;2.50;2.00;;;;;18.62;56.71;101082.31;5086885;27;45156;-77
2022/06/26 06:05:16;;;;;;;;;2.00;1.50;;;;;18.64;56.28;101084.91;5100198;27;45703;-77
2022/06/26 06:07:41;;;;;;;;;2.00;1.00;;;;;18.58;55.75;101074.50;5082321;27;47151;-70
2022/06/26 06:10:09;;;;;;;;;2.25;2.00;;;;;18.65;55.98;101087.53;5095478;27;45176;-70
2022/06/26 06:12:34;;;;;;;;;1.00;1.00;;;;;18.65;55.96;101087.53;5104144;27;45318;-70
2022/06/26 06:15:02;;;;;;;;;1.00;1.00;;;;;18.55;55.54;101069.28;5102771;27;45535;-76
2022/06/26 06:17:37;;;;;;;;;1.00;1.00;;;;;18.69;55.70;101091.81;5103988;27;45425;-78
2022/06/26 06:20:06;;;;;;;;;1.00;1.00;;;;;18.70;55.43;101087.25;5102467;27;45399;-78
2022/06/26 06:22:31;;;;;;;;;3.00;2.00;;;;;18.73;55.25;101094.28;5095836;27;45207;-78
2022/06/26 06:24:57;;;;;;;;;3.75;1.00;;;;;18.73;55.21;101097.88;5097335;27;45422;-79
2022/06/26 06:27:22;;;;;;;;;2.75;1.25;;;;;18.74;55.18;101096.91;5104043;27;45370;-78
2022/06/26 06:29:47;;;;;;;;;2.00;2.00;;;;;18.63;55.09;101080.50;5103181;27;45408;-78
2022/06/26 06:32:13;;;;;;;;;3.25;1.00;;;;;18.66;54.90;101086.56;5102752;27;45240;-78
2022/06/26 06:34:38;;;;;;;;;1.00;1.00;;;;;18.73;54.31;101097.88;5103306;27;45225;-78
2022/06/26 06:37:03;;;;;;;;;1.50;1.50;;;;;18.75;54.56;101098.66;5103613;27;45319;-78
2022/06/26 06:39:29;;;;;;;;;2.50;1.00;;;;;18.81;54.50;101111.81;5103163;27;45193;-78
2022/06/26 06:41:54;;;;;;;;;1.50;1.00;;;;;18.79;54.61;101110.16;5103416;27;45348;-78
2022/06/26 06:44:19;;;;;;;;;2.00;1.00;;;;;18.83;54.75;101117.16;5103702;27;45159;-77
2022/06/26 06:46:45;;;;;;;;;1.50;1.50;;;;;18.80;54.75;101110.06;5103049;27;46192;-78
2022/06/26 06:49:10;;;;;;;;;2.75;2.00;;;;;18.86;54.09;101120.53;5103055;27;45549;-78
2022/06/26 06:51:36;;;;;;;;;2.25;1.50;;;;;18.88;54.80;101115.03;5103699;27;45458;-78
2022/06/26 06:54:01;;;;;;;;;2.25;1.75;;;;;18.86;54.20;101111.53;5103499;27;45368;-78
2022/06/26 06:56:26;;;;;;;;;1.50;1.00;;;;;18.87;53.80;101119.56;5098389;27;46832;-79
2022/06/26 06:58:52;;;;;;;;;1.00;1.00;;;;;18.96;53.67;101123.56;5102424;27;45306;-78
2022/06/26 07:01:17;;;;;;;;;1.00;1.00;;;;;18.92;53.31;101118.44;5096720;27;45468;-78
2022/06/26 07:03:42;;;;;;;;;2.50;1.25;;;;;18.94;53.36;101122.75;5094947;27;45278;-79
2022/06/26 07:06:08;;;;;;;;;3.25;1.00;;;;;18.92;52.98;101121.13;5102906;27;46182;-79
2022/06/26 07:08:33;;;;;;;;;0.75;0.75;;;;;18.88;53.13;101115.91;5101980;27;45443;-79
2022/06/26 07:10:59;;;;;;;;;1.50;1.50;;;;;18.97;53.00;101132.53;5103353;27;45388;-78
2022/06/26 07:13:24;;;;;;;;;1.00;1.00;;;;;19.01;52.59;101134.06;5103352;27;45459;-79
2022/06/26 07:15:49;;;;;;;;;2.25;1.00;;;;;19.00;53.15;101132.34;5101094;27;45518;-79
2022/06/26 07:18:15;;;;;;;;;1.00;1.00;;;;;19.05;52.61;101152.72;5102128;27;45323;-79
2022/06/26 07:20:40;;;;;;;;;2.00;1.00;;;;;19.09;52.84;101150.72;5102489;27;45591;-78
2022/06/26 07:23:05;;;;;;;;;1.75;1.75;;;;;19.15;51.86;101155.75;5090200;27;45324;-78
2022/06/26 07:25:31;;;;;;;;;2.00;2.00;;;;;19.11;52.21;101148.81;5100990;27;45350;-79
2022/06/26 07:27:56;;;;;;;;;2.75;1.00;;;;;19.08;52.24;101143.56;5102891;27;45266;-79
2022/06/26 07:30:21;;;;;;;;;2.25;2.00;;;;;19.20;52.04;101163.59;5102817;27;45430;-78
2022/06/26 07:32:47;;;;;;;;;0.00;0.00;;;;;19.18;51.18;101162.81;5103082;27;45464;-79
2022/06/26 07:35:12;;;;;;;;;1.00;1.00;;;;;19.19;51.67;101162.69;5102434;27;46112;-78
2022/06/26 07:37:37;;;;;;;;;3.00;1.00;;;;;19.32;51.37;101176.34;5102904;27;45124;-79
2022/06/26 07:40:05;;;;;;;;;1.00;1.00;;;;;19.27;51.10;101162.22;5102604;27;45161;-79
2022/06/26 07:42:30;;;;;;;;;0.00;0.00;;;;;19.36;51.03;101174.31;5102838;27;45311;-79
2022/06/26 07:44:55;;;;;;;;;2.00;1.75;;;;;19.34;50.84;101173.53;5102505;27;45384;-79
2022/06/26 07:47:21;;;;;;;;;0.25;0.25;;;;;19.36;50.17;101158.97;5101921;27;45333;-79
2022/06/26 07:49:46;;;;;;;;;1.50;0.25;;;;;19.38;49.34;101172.41;5099059;27;45345;-79
2022/06/26 07:52:11;;;;;;;;;1.00;1.00;;;;;19.37;49.38;101165.25;5102810;27;45365;-79
2022/06/26 07:54:36;;;;;;;;;0.00;0.00;;;;;19.40;49.43;101179.44;5102514;27;45275;-79
2022/06/26 07:57:02;;;;;;;;;1.75;0.75;;;;;19.45;49.90;101179.16;5101273;27;45294;-79
2022/06/26 07:59:27;;;;;;;;;1.00;1.00;;;;;19.40;49.96;101168.63;5102571;27;45319;-79
2022/06/26 08:01:53;;;;;;;;;1.00;1.00;;;;;19.49;49.75;101180.69;5091917;27;45580;-79
2022/06/26 08:04:18;;;;;;;;;1.00;1.00;;;;;19.36;49.89;101147.25;5098524;27;45391;-79
2022/06/26 08:06:43;;;;;;;;;1.50;1.50;;;;;19.54;49.82;101177.72;5102496;27;45296;-79
2022/06/26 08:09:09;;;;;;;;;1.00;1.00;;;;;19.50;49.52;101165.34;5102391;27;45308;-78
2022/06/26 08:11:34;;;;;;;;;1.00;1.00;;;;;19.51;49.48;101153.53;5102374;27;45214;-78
2022/06/26 08:14:00;;;;;;;;;1.00;1.00;;;;;19.58;49.29;101154.91;5101999;27;45414;-79
2022/06/26 08:16:25;;;;;;;;;1.00;1.00;;;;;19.63;48.90;101160.91;5091314;27;45368;-79
2022/06/26 08:18:51;;;;;;;;;1.00;1.00;;;;;19.62;49.20;101159.13;5097956;27;45184;-79
2022/06/26 08:24:00;;;;;;;;;1.00;1.00;;;;;19.75;49.46;101168.25;5101952;27;45369;-79
2022/06/26 08:26:26;;;;;;;;;0.00;0.00;;;;;19.77;49.41;101163.59;5100860;27;45254;-78
2022/06/26 08:28:52;;;;;;;;;1.00;1.00;;;;;19.79;48.74;101171.63;5101971;27;45400;-79
2022/06/26 08:31:17;;;;;;;;;2.25;1.00;;;;;19.76;49.06;101169.13;5101433;27;45400;-78
2022/06/26 08:33:42;;;;;;;;;1.00;1.00;;;;;19.79;48.98;101174.34;5081948;27;47198;-79
2022/06/26 08:36:08;;;;;;;;;1.00;1.00;;;;;19.79;48.92;101169.78;5092571;27;47191;-79
2022/06/26 08:38:34;;;;;;;;;1.50;1.25;;;;;19.75;48.63;101154.72;5101496;27;45334;-78
2022/06/26 08:40:59;;;;;;;;;4.00;1.00;;;;;19.83;48.19;101161.47;5091084;27;45258;-78
2022/06/26 08:43:26;;;;;;;;;0.00;0.00;;;;;19.80;48.36;101157.13;5100205;27;46006;-79
2022/06/26 08:45:55;;;;;;;;;1.50;0.50;;;;;19.85;48.21;101163.13;5101607;27;45408;-79
2022/06/26 08:48:25;;;;;;;;;2.00;2.00;;;;;19.95;48.47;101176.94;5081574;27;45350;-79
2022/06/26 08:50:51;;;;;;;;;2.50;1.00;;;;;19.93;48.20;101166.19;5100322;27;45385;-79
2022/06/26 08:53:16;;;;;;;;;1.00;1.00;;;;;19.83;48.13;101128.97;5100472;27;45720;-78
2022/06/26 08:55:45;;;;;;;;;3.25;1.00;;;;;19.99;48.74;101146.81;5101521;27;45300;-78
2022/06/26 08:58:10;;;;;;;;;4.25;1.25;;;;;20.11;48.41;101160.53;5101564;27;45411;-79
2022/06/26 09:00:36;;;;;;;;;0.00;0.00;;;;;20.05;48.26;101140.13;5101368;27;45402;-79
2022/06/26 09:03:01;;;;;;;;;2.00;2.00;;;;;20.01;47.96;101135.88;5087695;27;46024;-79
2022/06/26 09:05:27;;;;;;;;;1.50;0.75;;;;;20.11;47.71;101144.28;5100975;27;45308;-79
2022/06/26 09:07:54;;;;;;;;;1.75;1.00;;;;;20.05;48.07;101144.69;5101333;27;45430;-79
2022/06/26 09:10:20;;;;;;;;;1.00;1.00;;;;;20.05;47.43;101145.56;5100185;27;45486;-78
2022/06/26 09:12:55;;;;;;;;;3.00;2.00;;;;;19.98;48.13;101139.69;5101035;27;45341;-77
2022/06/26 09:15:22;;;;;;;;;1.50;1.25;;;;;19.99;48.31;101125.13;5096670;27;45357;-78
2022/06/26 09:18:14;;;;;;;;;3.00;1.00;;;;;20.01;48.11;101124.19;5101446;27;45262;-77
2022/06/26 09:20:52;;;;;;;;;2.00;2.00;;;;;20.06;48.06;101122.03;5097039;27;45202;-78
2022/06/26 09:23:18;;;;;;;;;0.75;0.75;;;;;20.20;47.60;101132.84;5101139;27;45373;-78
2022/06/26 09:25:45;;;;;;;;;1.50;1.00;;;;;20.19;47.29;101114.81;5100793;27;45423;-78
2022/06/26 09:28:17;;;;;;;;;1.00;1.00;;;;;20.25;47.42;101130.69;5117191;27;45423;-78
2022/06/26 09:30:50;;;;;;;;;2.00;1.00;;;;;20.17;47.13;101116.78;5099274;27;45659;-77
2022/06/26 09:33:19;;;;;;;;;1.75;0.00;;;;;20.23;47.05;101129.03;5100830;27;46222;-78
2022/06/26 09:35:46;;;;;;;;;1.00;1.00;;;;;20.28;46.59;101126.88;5100731;27;45320;-77
2022/06/26 09:38:16;;;;;;;;;1.00;1.00;;;;;20.31;46.96;101130.28;5101013;27;45361;-78
2022/06/26 09:40:52;;;;;;;;;2.00;2.00;;;;;20.35;47.00;101133.66;5100913;27;45484;-78
2022/06/26 09:43:44;;;;;;;;;1.00;1.00;;;;;20.38;46.89;101132.56;5100172;27;46968;-78
2022/06/26 09:46:12;;;;;;;;;1.75;1.75;;;;;20.38;47.22;101128.03;5114472;27;45320;-78
2022/06/26 09:48:38;;;;;;;;;1.00;1.00;;;;;20.35;46.09;101111.97;5101020;27;45305;-78
2022/06/26 09:51:08;;;;;;;;;1.25;1.25;;;;;20.33;46.88;101103.03;5100360;27;45385;-77
2022/06/26 09:53:35;;;;;;;;;1.00;1.00;;;;;20.43;46.91;101122.25;5100742;27;46169;-78
2022/06/26 09:56:00;;;;;;;;;0.50;0.25;;;;;20.43;45.91;101114.13;5100588;27;45254;-78
2022/06/26 09:58:26;;;;;;;;;1.00;1.00;;;;;20.49;46.33;101132.72;5100965;27;45467;-78
2022/06/26 10:06:25;;;;;;;;;1.00;1.00;;;;;20.57;46.05;101133.06;5093309;27;45408;-77
2022/06/26 10:08:52;;;;;;;;;2.75;1.00;;;;;20.56;45.96;101128.59;5092658;27;45434;-78
2022/06/26 10:11:19;;;;;;;;;2.00;1.00;;;;;20.57;45.75;101119.50;5100539;27;45149;-77
2022/06/26 10:13:45;;;;;;;;;0.75;0.75;;;;;20.64;46.00;101133.53;5100293;27;46393;-78
2022/06/26 10:16:35;;;;;;;;;2.00;2.00;;;;;20.66;45.50;101126.16;5100151;27;45462;-78
2022/06/26 10:19:26;;;;;;;;;1.00;1.00;;;;;20.66;45.66;101118.88;5099906;27;45495;-78
2022/06/26 10:21:52;;;;;;;;;0.75;0.75;;;;;20.72;45.62;101120.31;5100024;27;45509;-78
2022/06/26 10:24:18;;;;;;;;;0.75;0.75;;;;;20.75;45.09;101121.94;5100371;27;45571;-78
2022/06/26 10:27:01;;;;;;;;;1.00;1.00;;;;;20.81;45.50;101116.94;5100033;27;45323;-78
2022/06/26 10:29:32;;;;;;;;;2.50;1.50;;;;;20.83;45.79;101115.03;5100119;27;45423;-77
2022/06/26 10:31:58;;;;;;;;;1.00;1.00;;;;;20.80;45.35;101107.09;5098880;27;45233;-78
2022/06/26 10:34:24;;;;;;;;;1.50;1.00;;;;;20.88;45.21;101120.09;5099614;27;46404;-78
2022/06/26 10:37:02;;;;;;;;;1.25;1.25;;;;;20.90;44.64;101120.88;5099590;27;45332;-77
2022/06/26 10:39:42;;;;;;;;;3.00;1.25;;;;;20.94;45.09;101125.13;5100129;27;45320;-78
2022/06/26 10:45:12;;;;;;;;;1.00;1.00;;;;;20.91;44.89;101139.78;5099059;27;45492;-78
2022/06/26 10:47:44;;;;;;;;;1.50;1.50;;;;;20.91;44.55;101131.63;5100133;27;45226;-78
2022/06/26 10:50:39;;;;;;;;;1.00;1.00;;;;;20.94;44.49;101127.81;5099926;27;45463;-76
2022/06/26 10:53:13;;;;;;;;;3.00;2.00;;;;;20.96;44.45;101134.00;5100854;27;45511;-78
2022/06/26 10:55:40;;;;;;;;;3.00;2.00;;;;;20.97;45.24;101124.91;5103517;27;45386;-77
2022/06/26 10:58:05;;;;;;;;;1.75;1.75;;;;;20.99;45.30;101130.22;5103409;27;45426;-72
2022/06/26 11:00:31;;;;;;;;;2.00;2.00;;;;;20.99;45.04;101122.94;5101894;27;45254;-71
2022/06/26 11:02:56;;;;;;;;;2.00;2.00;;;;;20.98;45.53;101121.22;5102024;27;45501;-71
2022/06/26 11:05:21;;;;;;;;;3.25;3.00;;;;;21.01;46.02;101123.69;5102949;27;46286;-77
2022/06/26 11:07:53;;;;;;;;;2.25;2.25;;;;;21.03;45.57;101121.75;5103183;27;45373;-75
2022/06/26 11:10:21;;;;;;;;;3.00;3.00;;;;;21.00;45.35;101119.25;5103402;27;45411;-76
2022/06/26 11:12:49;;;;;;;;;4.00;4.00;;;;;21.01;45.57;101111.97;5103237;27;45486;-75
2022/06/26 11:15:20;;;;;;;;;2.75;2.00;;;;;21.01;45.24;101114.69;5103232;27;45332;-76
2022/06/26 11:17:58;;;;;;;;;2.50;2.00;;;;;20.95;46.17;101104.25;5103309;27;45530;-75
2022/06/26 11:23:25;;;;;;;;;5.75;5.75;;;;;21.04;46.89;101104.50;5102157;27;45461;-75
2022/06/26 11:26:03;;;;;;;;;4.00;3.00;;;;;21.03;46.62;101096.44;5103085;27;46120;-75
2022/06/26 11:28:29;;;;;;;;;1.50;1.50;;;;;21.12;46.66;101095.81;5102940;27;45329;-76
2022/06/26 11:30:55;;;;;;;;;2.00;2.00;;;;;21.18;45.82;101098.06;5101208;27;45332;-76
2022/06/26 11:33:24;;;;;;;;;3.25;3.00;;;;;21.23;45.49;101106.78;5087697;27;45504;-76
2022/06/26 11:35:49;;;;;;;;;1.50;1.50;;;;;21.26;45.44;101113.81;5101341;27;47466;-76
2022/06/26 11:38:16;;;;;;;;;1.25;1.25;;;;;21.26;45.26;101100.25;5102660;27;45421;-76
2022/06/26 11:40:43;;;;;;;;;1.25;1.25;;;;;21.32;44.34;101107.06;5102019;27;45348;-75